ABZ weather

Aberdeen Dyce Airport
Aberdeen, Scotland, United Kingdom

Public forecast

Using degrees Celsius for public forecast. Weather courtesy of forecast.io.

METAR (pilot weather report)

Retrieved 2019/03/23 16:20 UTC (20 minutes ago):

EGPD 231620Z AUTO 26010KT 9999 NCD 10/M02 Q1028 NOSIG

TAF (pilot weather forecast)

Retrieved 2019/03/23 12:15 UTC (4 hours ago):

TAF EGPD 231056Z 2312/2412 26009KT 9999 FEW040 PROB30 TEMPO 2312/2315 27015G25KT BECMG 2403/2406 20012KT TEMPO 2403/2409 21015G25KT BECMG 2409/2412 26015KT TEMPO 2409/2412 27018G28KT PROB30 TEMPO 2409/2412 8000 -SHRA